Airport ID:KEDC
Update Time (UTC):12 DEC 18 08:24
Wind Speed (Knots):5
Wind Direction (Magnetic):210
Temperature (°C):10
Dew Point (°C):9
Humidity (%):91
Altimeter (inHg):30.1
Density Altitude (Feet):
Visibility (Miles):7
Clouds (Hundreds of feet):FEW030 OVC044
Present Weather:NO PRECIPITATION
METAR:METAR KEDC 120820Z AUTO 21004KT 7SM FEW030 OVC044 10/09 A3010 RMK AO2

The data displayed is for advisory purposes only and is not to be used for flight planning or operations.

This page is not automatically refreshed. Reload the page to see current data.